sensor_id;sensor_type;location;lat;lon;timestamp;pressure;altitude;pressure_sealevel;temperature
67599;BMP280;62026;39.230;9.122;2023-04-01T00:01:05;100991.13;;;16.17
67599;BMP280;62026;39.230;9.122;2023-04-01T00:03:33;100990.31;;;16.16
67599;BMP280;62026;39.230;9.122;2023-04-01T00:06:00;100982.75;;;16.13
67599;BMP280;62026;39.230;9.122;2023-04-01T00:08:28;100988.69;;;16.15
67599;BMP280;62026;39.230;9.122;2023-04-01T00:10:54;100987.03;;;16.14
67599;BMP280;62026;39.230;9.122;2023-04-01T00:13:21;100990.44;;;16.09
67599;BMP280;62026;39.230;9.122;2023-04-01T00:15:48;100977.69;;;16.11
67599;BMP280;62026;39.230;9.122;2023-04-01T00:18:14;100970.75;;;16.10
67599;BMP280;62026;39.230;9.122;2023-04-01T00:20:49;100973.91;;;16.07
67599;BMP280;62026;39.230;9.122;2023-04-01T00:23:17;100967.75;;;16.07
67599;BMP280;62026;39.230;9.122;2023-04-01T00:25:45;100960.81;;;16.06
67599;BMP280;62026;39.230;9.122;2023-04-01T00:28:12;100953.88;;;16.05
67599;BMP280;62026;39.230;9.122;2023-04-01T00:30:38;100952.81;;;16.06
67599;BMP280;62026;39.230;9.122;2023-04-01T00:33:04;100953.31;;;16.03
67599;BMP280;62026;39.230;9.122;2023-04-01T00:35:31;100947.88;;;15.98
67599;BMP280;62026;39.230;9.122;2023-04-01T00:37:58;100955.41;;;16.01
67599;BMP280;62026;39.230;9.122;2023-04-01T00:42:50;100951.34;;;15.98
67599;BMP280;62026;39.230;9.122;2023-04-01T00:45:36;100944.41;;;15.97
67599;BMP280;62026;39.230;9.122;2023-04-01T00:48:15;100947.63;;;15.99
67599;BMP280;62026;39.230;9.122;2023-04-01T00:51:06;100943.59;;;15.97
67599;BMP280;62026;39.230;9.122;2023-04-01T00:53:38;100942.00;;;15.96
67599;BMP280;62026;39.230;9.122;2023-04-01T00:56:33;100945.22;;;15.98
67599;BMP280;62026;39.230;9.122;2023-04-01T00:59:08;100944.69;;;15.96
67599;BMP280;62026;39.230;9.122;2023-04-01T01:01:37;100939.81;;;15.93
67599;BMP280;62026;39.230;9.122;2023-04-01T01:04:03;100935.50;;;15.92
67599;BMP280;62026;39.230;9.122;2023-04-01T01:09:52;100931.25;;;15.91
67599;BMP280;62026;39.230;9.122;2023-04-01T01:12:36;100927.22;;;15.88
67599;BMP280;62026;39.230;9.122;2023-04-01T01:15:46;100927.47;;;15.87
67599;BMP280;62026;39.230;9.122;2023-04-01T01:18:26;100922.13;;;15.87
67599;BMP280;62026;39.230;9.122;2023-04-01T01:21:15;100923.28;;;15.91
67599;BMP280;62026;39.230;9.122;2023-04-01T01:24:43;100914.72;;;15.89
67599;BMP280;62026;39.230;9.122;2023-04-01T01:27:20;100916.28;;;15.85
67599;BMP280;62026;39.230;9.122;2023-04-01T01:36:18;100924.69;;;15.82
67599;BMP280;62026;39.230;9.122;2023-04-01T01:38:48;100924.16;;;15.79
67599;BMP280;62026;39.230;9.122;2023-04-01T01:41:17;100922.78;;;15.77
67599;BMP280;62026;39.230;9.122;2023-04-01T01:43:48;100924.03;;;15.74
67599;BMP280;62026;39.230;9.122;2023-04-01T01:46:24;100926.16;;;15.72
67599;BMP280;62026;39.230;9.122;2023-04-01T01:48:52;100929.34;;;15.74
67599;BMP280;62026;39.230;9.122;2023-04-01T01:51:21;100937.84;;;15.71
67599;BMP280;62026;39.230;9.122;2023-04-01T01:53:48;100925.00;;;15.68
67599;BMP280;62026;39.230;9.122;2023-04-01T01:56:18;100929.97;;;15.65
67599;BMP280;62026;39.230;9.122;2023-04-01T01:59:14;100932.91;;;15.63
67599;BMP280;62026;39.230;9.122;2023-04-01T02:01:51;100927.31;;;15.65
67599;BMP280;62026;39.230;9.122;2023-04-01T02:04:19;100927.59;;;15.63
67599;BMP280;62026;39.230;9.122;2023-04-01T02:07:03;100932.91;;;15.63
67599;BMP280;62026;39.230;9.122;2023-04-01T02:09:30;100934.03;;;15.67
67599;BMP280;62026;39.230;9.122;2023-04-01T02:12:02;100933.22;;;15.67
67599;BMP280;62026;39.230;9.122;2023-04-01T02:14:57;100935.88;;;15.67
67599;BMP280;62026;39.230;9.122;2023-04-01T02:17:29;100930.56;;;15.67
67599;BMP280;62026;39.230;9.122;2023-04-01T02:20:13;100923.38;;;15.67
67599;BMP280;62026;39.230;9.122;2023-04-01T02:22:50;100918.63;;;15.69
67599;BMP280;62026;39.230;9.122;2023-04-01T02:25:37;100918.88;;;15.68
67599;BMP280;62026;39.230;9.122;2023-04-01T02:28:09;100930.31;;;15.68
67599;BMP280;62026;39.230;9.122;2023-04-01T02:30:39;100925.00;;;15.68
67599;BMP280;62026;39.230;9.122;2023-04-01T02:33:07;100931.38;;;15.67
67599;BMP280;62026;39.230;9.122;2023-04-01T02:35:35;100931.38;;;15.67
67599;BMP280;62026;39.230;9.122;2023-04-01T02:38:03;100923.84;;;15.64
67599;BMP280;62026;39.230;9.122;2023-04-01T02:40:52;100931.59;;;15.66
67599;BMP280;62026;39.230;9.122;2023-04-01T02:43:22;100932.91;;;15.63
67599;BMP280;62026;39.230;9.122;2023-04-01T02:45:48;100931.28;;;15.62
67599;BMP280;62026;39.230;9.122;2023-04-01T02:48:14;100926.50;;;15.64
67599;BMP280;62026;39.230;9.122;2023-04-01T02:50:40;100937.72;;;15.66
67599;BMP280;62026;39.230;9.122;2023-04-01T02:53:06;100937.72;;;15.66
67599;BMP280;62026;39.230;9.122;2023-04-01T02:55:34;100937.16;;;15.64
67599;BMP280;62026;39.230;9.122;2023-04-01T02:58:00;100943.56;;;15.63
67599;BMP280;62026;39.230;9.122;2023-04-01T03:00:27;100940.91;;;15.63
67599;BMP280;62026;39.230;9.122;2023-04-01T03:02:54;100949.66;;;15.64
67599;BMP280;62026;39.230;9.122;2023-04-01T03:05:20;100949.31;;;15.60
67599;BMP280;62026;39.230;9.122;2023-04-01T03:07:47;100943.41;;;15.58
67599;BMP280;62026;39.230;9.122;2023-04-01T03:10:13;100942.97;;;15.61
67599;BMP280;62026;39.230;9.122;2023-04-01T03:12:39;100946.66;;;15.60
67599;BMP280;62026;39.230;9.122;2023-04-01T03:15:06;100949.31;;;15.60
67599;BMP280;62026;39.230;9.122;2023-04-01T03:17:33;100946.88;;;15.59
67599;BMP280;62026;39.230;9.122;2023-04-01T03:19:59;100946.06;;;15.58
67599;BMP280;62026;39.230;9.122;2023-04-01T03:22:25;100949.25;;;15.55
67599;BMP280;62026;39.230;9.122;2023-04-01T03:24:54;100947.38;;;15.56
67599;BMP280;62026;39.230;9.122;2023-04-01T03:27:20;100942.06;;;15.56
67599;BMP280;62026;39.230;9.122;2023-04-01T03:29:46;100942.31;;;15.54
67599;BMP280;62026;39.230;9.122;2023-04-01T03:32:12;100956.41;;;15.55
67599;BMP280;62026;39.230;9.122;2023-04-01T03:34:38;100953.50;;;15.56
67599;BMP280;62026;39.230;9.122;2023-04-01T03:37:04;100960.91;;;15.54
67599;BMP280;62026;39.230;9.122;2023-04-01T03:39:32;100963.00;;;15.52
67599;BMP280;62026;39.230;9.122;2023-04-01T03:41:58;100952.59;;;15.51
67599;BMP280;62026;39.230;9.122;2023-04-01T03:44:24;100962.44;;;15.50
67599;BMP280;62026;39.230;9.122;2023-04-01T03:46:53;100962.44;;;15.50
67599;BMP280;62026;39.230;9.122;2023-04-01T03:49:19;100966.72;;;15.51
67599;BMP280;62026;39.230;9.122;2023-04-01T03:51:45;100963.47;;;15.49
67599;BMP280;62026;39.230;9.122;2023-04-01T03:54:11;100960.81;;;15.49
67599;BMP280;62026;39.230;9.122;2023-04-01T03:56:37;100964.78;;;15.47
67599;BMP280;62026;39.230;9.122;2023-04-01T03:59:07;100951.69;;;15.45
67599;BMP280;62026;39.230;9.122;2023-04-01T04:01:34;100949.25;;;15.43
67599;BMP280;62026;39.230;9.122;2023-04-01T04:04:00;100947.63;;;15.42
67599;BMP280;62026;39.230;9.122;2023-04-01T04:06:27;100947.63;;;15.42
67599;BMP280;62026;39.230;9.122;2023-04-01T04:08:54;100954.56;;;15.43
67599;BMP280;62026;39.230;9.122;2023-04-01T04:11:21;100950.06;;;15.44
67599;BMP280;62026;39.230;9.122;2023-04-01T04:13:50;100949.25;;;15.43
67599;BMP280;62026;39.230;9.122;2023-04-01T04:16:19;100948.44;;;15.43
67599;BMP280;62026;39.230;9.122;2023-04-01T04:18:50;100950.06;;;15.44
67599;BMP280;62026;39.230;9.122;2023-04-01T04:21:17;100950.06;;;15.44
67599;BMP280;62026;39.230;9.122;2023-04-01T04:23:43;100951.34;;;15.41
67599;BMP280;62026;39.230;9.122;2023-04-01T04:26:13;100946.28;;;15.40
67599;BMP280;62026;39.230;9.122;2023-04-01T04:28:41;100948.69;;;15.41
67599;BMP280;62026;39.230;9.122;2023-04-01T04:31:08;100940.34;;;15.38
67599;BMP280;62026;39.230;9.122;2023-04-01T04:33:35;100943.34;;;15.41
67599;BMP280;62026;39.230;9.122;2023-04-01T04:36:04;100940.97;;;15.40
67599;BMP280;62026;39.230;9.122;2023-04-01T04:38:30;100936.69;;;15.39
67599;BMP280;62026;39.230;9.122;2023-04-01T04:40:56;100939.53;;;15.37
67599;BMP280;62026;39.230;9.122;2023-04-01T04:43:25;100926.47;;;15.36
67599;BMP280;62026;39.230;9.122;2023-04-01T04:45:51;100938.19;;;15.35
67599;BMP280;62026;39.230;9.122;2023-04-01T04:48:17;100939.22;;;15.34
67599;BMP280;62026;39.230;9.122;2023-04-01T04:50:47;100945.59;;;15.33
67599;BMP280;62026;39.230;9.122;2023-04-01T04:53:17;100937.84;;;15.31
67599;BMP280;62026;39.230;9.122;2023-04-01T04:55:49;100938.06;;;15.30
67599;BMP280;62026;39.230;9.122;2023-04-01T04:58:32;100947.69;;;15.31
67599;BMP280;62026;39.230;9.122;2023-04-01T05:01:11;100951.38;;;15.30
67599;BMP280;62026;39.230;9.122;2023-04-01T05:03:39;100941.78;;;15.29
67599;BMP280;62026;39.230;9.122;2023-04-01T05:06:07;100945.47;;;15.28
67599;BMP280;62026;39.230;9.122;2023-04-01T05:08:34;100938.53;;;15.27
67599;BMP280;62026;39.230;9.122;2023-04-01T05:11:02;100951.03;;;15.26
67599;BMP280;62026;39.230;9.122;2023-04-01T05:13:29;100965.13;;;15.27
67599;BMP280;62026;39.230;9.122;2023-04-01T05:15:56;100950.22;;;15.26
67599;BMP280;62026;39.230;9.122;2023-04-01T05:18:22;100957.16;;;15.27
67599;BMP280;62026;39.230;9.122;2023-04-01T05:20:51;100955.53;;;15.26
67599;BMP280;62026;39.230;9.122;2023-04-01T05:23:19;100964.91;;;15.28
67599;BMP280;62026;39.230;9.122;2023-04-01T05:25:48;100954.28;;;15.28
67599;BMP280;62026;39.230;9.122;2023-04-01T05:28:16;100953.47;;;15.28
67599;BMP280;62026;39.230;9.122;2023-04-01T05:30:45;100954.03;;;15.30
67599;BMP280;62026;39.230;9.122;2023-04-01T05:33:35;100954.03;;;15.30
67599;BMP280;62026;39.230;9.122;2023-04-01T05:36:14;100955.41;;;15.32
67599;BMP280;62026;39.230;9.122;2023-04-01T05:38:41;100943.75;;;15.33
67599;BMP280;62026;39.230;9.122;2023-04-01T05:41:10;100947.22;;;15.34
67599;BMP280;62026;39.230;9.122;2023-04-01T05:43:41;100954.69;;;15.37
67599;BMP280;62026;39.230;9.122;2023-04-01T05:46:28;100950.56;;;15.41
67599;BMP280;62026;39.230;9.122;2023-04-01T05:48:59;100949.59;;;15.47
67599;BMP280;62026;39.230;9.122;2023-04-01T05:51:26;100953.88;;;15.48
67599;BMP280;62026;39.230;9.122;2023-04-01T05:53:52;100949.72;;;15.52
67599;BMP280;62026;39.230;9.122;2023-04-01T05:56:18;100955.13;;;15.57
67599;BMP280;62026;39.230;9.122;2023-04-01T05:58:52;100954.19;;;15.63
67599;BMP280;62026;39.230;9.122;2023-04-01T06:01:20;100950.81;;;15.68
67599;BMP280;62026;39.230;9.122;2023-04-01T06:03:47;100949.38;;;15.77
67599;BMP280;62026;39.230;9.122;2023-04-01T06:06:20;100952.78;;;15.89
67599;BMP280;62026;39.230;9.122;2023-04-01T06:08:49;100941.84;;;16.02
67599;BMP280;62026;39.230;9.122;2023-04-01T06:11:39;100953.47;;;16.13
67599;BMP280;62026;39.230;9.122;2023-04-01T06:17:28;100958.66;;;16.20
67599;BMP280;62026;39.230;9.122;2023-04-01T06:20:42;100962.75;;;16.10
67599;BMP280;62026;39.230;9.122;2023-04-01T06:23:30;100958.97;;;16.06
67599;BMP280;62026;39.230;9.122;2023-04-01T06:29:25;100973.81;;;16.19
67599;BMP280;62026;39.230;9.122;2023-04-01T06:32:26;100973.03;;;16.35
67599;BMP280;62026;39.230;9.122;2023-04-01T06:41:25;100967.78;;;16.74
67599;BMP280;62026;39.230;9.122;2023-04-01T06:54:20;100971.09;;;17.68
67599;BMP280;62026;39.230;9.122;2023-04-01T06:57:32;100967.91;;;17.71
67599;BMP280;62026;39.230;9.122;2023-04-01T07:00:04;100966.13;;;17.82
67599;BMP280;62026;39.230;9.122;2023-04-01T07:02:52;100973.13;;;17.83
67599;BMP280;62026;39.230;9.122;2023-04-01T07:05:24;100970.75;;;17.86
67599;BMP280;62026;39.230;9.122;2023-04-01T07:08:02;100975.41;;;18.01
67599;BMP280;62026;39.230;9.122;2023-04-01T07:10:50;100967.88;;;17.93
67599;BMP280;62026;39.230;9.122;2023-04-01T07:13:54;100952.81;;;17.55
67599;BMP280;62026;39.230;9.122;2023-04-01T07:16:37;100954.56;;;17.71
67599;BMP280;62026;39.230;9.122;2023-04-01T07:25:25;100965.63;;;18.12
67599;BMP280;62026;39.230;9.122;2023-04-01T07:28:14;100959.78;;;18.15
67599;BMP280;62026;39.230;9.122;2023-04-01T07:30:51;100966.22;;;18.19
67599;BMP280;62026;39.230;9.122;2023-04-01T07:37:06;100962.09;;;18.43
67599;BMP280;62026;39.230;9.122;2023-04-01T07:45:50;100969.84;;;18.82
67599;BMP280;62026;39.230;9.122;2023-04-01T07:48:53;100976.34;;;18.96
67599;BMP280;62026;39.230;9.122;2023-04-01T07:51:55;100967.59;;;19.11
67599;BMP280;62026;39.230;9.122;2023-04-01T07:54:37;100972.75;;;19.32
67599;BMP280;62026;39.230;9.122;2023-04-01T07:57:14;100965.84;;;19.47
67599;BMP280;62026;39.230;9.122;2023-04-01T08:00:19;100964.47;;;19.49
67599;BMP280;62026;39.230;9.122;2023-04-01T08:09:31;100969.34;;;19.88
67599;BMP280;62026;39.230;9.122;2023-04-01T08:18:43;100974.97;;;20.27
67599;BMP280;62026;39.230;9.122;2023-04-01T08:21:21;100970.38;;;20.47
67599;BMP280;62026;39.230;9.122;2023-04-01T08:23:54;100969.56;;;20.47
67599;BMP280;62026;39.230;9.122;2023-04-01T08:26:40;100958.25;;;20.70
67599;BMP280;62026;39.230;9.122;2023-04-01T08:29:20;100960.09;;;20.80
67599;BMP280;62026;39.230;9.122;2023-04-01T08:32:04;100955.03;;;20.73
67599;BMP280;62026;39.230;9.122;2023-04-01T08:34:39;100948.03;;;20.72
67599;BMP280;62026;39.230;9.122;2023-04-01T08:37:21;100954.44;;;20.92
67599;BMP280;62026;39.230;9.122;2023-04-01T08:40:05;100940.34;;;21.10
67599;BMP280;62026;39.230;9.122;2023-04-01T08:43:06;100946.28;;;21.12
67599;BMP280;62026;39.230;9.122;2023-04-01T09:02:22;100963.41;;;21.21
67599;BMP280;62026;39.230;9.122;2023-04-01T09:08:45;100950.31;;;21.53
67599;BMP280;62026;39.230;9.122;2023-04-01T09:23:53;100945.13;;;21.62
67599;BMP280;62026;39.230;9.122;2023-04-01T09:40:16;100948.31;;;21.98
67599;BMP280;62026;39.230;9.122;2023-04-01T09:49:41;100941.28;;;22.02
67599;BMP280;62026;39.230;9.122;2023-04-01T09:52:41;100932.78;;;21.95
67599;BMP280;62026;39.230;9.122;2023-04-01T10:02:18;100920.66;;;21.63
67599;BMP280;62026;39.230;9.122;2023-04-01T10:08:58;100910.63;;;21.45
67599;BMP280;62026;39.230;9.122;2023-04-01T10:24:32;100907.94;;;21.40
67599;BMP280;62026;39.230;9.122;2023-04-01T10:27:29;100911.91;;;21.53
67599;BMP280;62026;39.230;9.122;2023-04-01T10:33:45;100910.25;;;21.86
67599;BMP280;62026;39.230;9.122;2023-04-01T10:36:43;100906.03;;;21.80
67599;BMP280;62026;39.230;9.122;2023-04-01T10:49:17;100896.44;;;21.69
67599;BMP280;62026;39.230;9.122;2023-04-01T11:11:52;100883.53;;;20.98
67599;BMP280;62026;39.230;9.122;2023-04-01T11:20:45;100872.41;;;20.75
67599;BMP280;62026;39.230;9.122;2023-04-01T11:23:45;100880.22;;;20.57
67599;BMP280;62026;39.230;9.122;2023-04-01T11:26:38;100891.16;;;20.80
67599;BMP280;62026;39.230;9.122;2023-04-01T11:33:04;100878.34;;;20.67
67599;BMP280;62026;39.230;9.122;2023-04-01T11:35:53;100868.66;;;20.71
67599;BMP280;62026;39.230;9.122;2023-04-01T11:41:47;100862.50;;;20.61
67599;BMP280;62026;39.230;9.122;2023-04-01T11:48:13;100853.69;;;20.55
67599;BMP280;62026;39.230;9.122;2023-04-01T12:05:54;100846.53;;;20.30
67599;BMP280;62026;39.230;9.122;2023-04-01T12:12:29;100836.03;;;20.39
67599;BMP280;62026;39.230;9.122;2023-04-01T12:15:20;100841.19;;;20.30
67599;BMP280;62026;39.230;9.122;2023-04-01T12:18:12;100833.66;;;20.32
67599;BMP280;62026;39.230;9.122;2023-04-01T12:24:42;100828.00;;;20.44
67599;BMP280;62026;39.230;9.122;2023-04-01T12:27:41;100831.72;;;20.48
67599;BMP280;62026;39.230;9.122;2023-04-01T12:30:32;100820.50;;;20.41
67599;BMP280;62026;39.230;9.122;2023-04-01T12:36:01;100814.44;;;20.20
67599;BMP280;62026;39.230;9.122;2023-04-01T12:39:11;100809.34;;;20.14
67599;BMP280;62026;39.230;9.122;2023-04-01T12:42:04;100808.00;;;20.11
67599;BMP280;62026;39.230;9.122;2023-04-01T12:44:53;100811.00;;;19.99
67599;BMP280;62026;39.230;9.122;2023-04-01T12:59:54;100805.59;;;20.15
67599;BMP280;62026;39.230;9.122;2023-04-01T13:08:27;100796.50;;;20.05
67599;BMP280;62026;39.230;9.122;2023-04-01T13:11:24;100787.41;;;20.06
67599;BMP280;62026;39.230;9.122;2023-04-01T13:17:23;100789.03;;;19.92
67599;BMP280;62026;39.230;9.122;2023-04-01T13:20:11;100790.38;;;20.00
67599;BMP280;62026;39.230;9.122;2023-04-01T13:28:38;100782.13;;;19.76
67599;BMP280;62026;39.230;9.122;2023-04-01T13:31:33;100788.50;;;19.85
67599;BMP280;62026;39.230;9.122;2023-04-01T13:42:47;100755.84;;;19.73
67599;BMP280;62026;39.230;9.122;2023-04-01T13:45:23;100760.66;;;19.66
67599;BMP280;62026;39.230;9.122;2023-04-01T14:06:05;100774.63;;;19.63
67599;BMP280;62026;39.230;9.122;2023-04-01T14:23:42;100779.41;;;19.66
67599;BMP280;62026;39.230;9.122;2023-04-01T14:32:06;100770.88;;;19.49
67599;BMP280;62026;39.230;9.122;2023-04-01T14:49:39;100760.72;;;19.30
67599;BMP280;62026;39.230;9.122;2023-04-01T14:54:46;100772.00;;;19.38
67599;BMP280;62026;39.230;9.122;2023-04-01T14:57:31;100772.53;;;19.29
67599;BMP280;62026;39.230;9.122;2023-04-01T15:08:56;100765.81;;;19.27
67599;BMP280;62026;39.230;9.122;2023-04-01T15:17:40;100769.28;;;19.17
67599;BMP280;62026;39.230;9.122;2023-04-01T15:23:31;100778.38;;;19.11
67599;BMP280;62026;39.230;9.122;2023-04-01T15:32:29;100783.19;;;18.99
67599;BMP280;62026;39.230;9.122;2023-04-01T15:35:25;100797.13;;;19.01
67599;BMP280;62026;39.230;9.122;2023-04-01T15:43:48;100791.75;;;19.01
67599;BMP280;62026;39.230;9.122;2023-04-01T15:46:46;100784.78;;;18.90
67599;BMP280;62026;39.230;9.122;2023-04-01T15:52:40;100789.59;;;18.83
67599;BMP280;62026;39.230;9.122;2023-04-01T16:07:11;100798.59;;;18.61
67599;BMP280;62026;39.230;9.122;2023-04-01T16:13:08;100800.69;;;18.49
67599;BMP280;62026;39.230;9.122;2023-04-01T16:15:22;100812.41;;;18.43
67599;BMP280;62026;39.230;9.122;2023-04-01T16:18:12;100810.03;;;18.42
67599;BMP280;62026;39.230;9.122;2023-04-01T16:21:00;100816.69;;;18.39
67599;BMP280;62026;39.230;9.122;2023-04-01T16:23:49;100809.72;;;18.33
67599;BMP280;62026;39.230;9.122;2023-04-01T16:26:39;100803.25;;;18.24
67599;BMP280;62026;39.230;9.122;2023-04-01T16:29:53;100810.44;;;18.18
67599;BMP280;62026;39.230;9.122;2023-04-01T16:32:43;100807.22;;;18.16
67599;BMP280;62026;39.230;9.122;2023-04-01T16:41:31;100790.38;;;18.16
67599;BMP280;62026;39.230;9.122;2023-04-01T16:44:30;100794.13;;;18.15
67599;BMP280;62026;39.230;9.122;2023-04-01T16:46:59;100785.53;;;18.08
67599;BMP280;62026;39.230;9.122;2023-04-01T16:49:46;100779.34;;;18.02
67599;BMP280;62026;39.230;9.122;2023-04-01T16:55:20;100790.81;;;17.98
67599;BMP280;62026;39.230;9.122;2023-04-01T16:57:55;100797.78;;;17.99
67599;BMP280;62026;39.230;9.122;2023-04-01T17:00:41;100792.91;;;17.96
67599;BMP280;62026;39.230;9.122;2023-04-01T17:04:04;100790.78;;;17.92
67599;BMP280;62026;39.230;9.122;2023-04-01T17:06:53;100795.03;;;17.88
67599;BMP280;62026;39.230;9.122;2023-04-01T17:15:30;100799.75;;;17.76
67599;BMP280;62026;39.230;9.122;2023-04-01T17:18:14;100794.16;;;17.78
67599;BMP280;62026;39.230;9.122;2023-04-01T17:20:50;100792.53;;;17.77
67599;BMP280;62026;39.230;9.122;2023-04-01T17:23:35;100802.66;;;17.70
67599;BMP280;62026;39.230;9.122;2023-04-01T17:26:26;100798.94;;;17.71
67599;BMP280;62026;39.230;9.122;2023-04-01T17:32:16;100797.50;;;17.63
67599;BMP280;62026;39.230;9.122;2023-04-01T17:35:00;100801.75;;;17.59
67599;BMP280;62026;39.230;9.122;2023-04-01T17:51:57;100803.47;;;17.43
67599;BMP280;62026;39.230;9.122;2023-04-01T17:57:50;100806.34;;;17.37
67599;BMP280;62026;39.230;9.122;2023-04-01T18:00:46;100811.97;;;17.35
67599;BMP280;62026;39.230;9.122;2023-04-01T18:06:12;100822.81;;;17.29
67599;BMP280;62026;39.230;9.122;2023-04-01T18:09:00;100822.78;;;17.24
67599;BMP280;62026;39.230;9.122;2023-04-01T18:17:27;100826.97;;;17.14
67599;BMP280;62026;39.230;9.122;2023-04-01T18:20:34;100830.19;;;17.16
67599;BMP280;62026;39.230;9.122;2023-04-01T18:23:14;100834.97;;;17.14
67599;BMP280;62026;39.230;9.122;2023-04-01T18:25:53;100836.47;;;17.05
67599;BMP280;62026;39.230;9.122;2023-04-01T18:28:43;100843.97;;;17.08
67599;BMP280;62026;39.230;9.122;2023-04-01T18:31:41;100843.44;;;17.11
67599;BMP280;62026;39.230;9.122;2023-04-01T18:37:34;100849.00;;;17.05
67599;BMP280;62026;39.230;9.122;2023-04-01T18:40:23;100844.47;;;17.05
67599;BMP280;62026;39.230;9.122;2023-04-01T18:43:32;100838.28;;;17.00
67599;BMP280;62026;39.230;9.122;2023-04-01T18:46:45;100843.03;;;16.98
67599;BMP280;62026;39.230;9.122;2023-04-01T18:49:33;100836.88;;;16.97
67599;BMP280;62026;39.230;9.122;2023-04-01T18:52:32;100813.66;;;16.93
67599;BMP280;62026;39.230;9.122;2023-04-01T18:57:51;100805.59;;;16.88
67599;BMP280;62026;39.230;9.122;2023-04-01T19:00:28;100805.84;;;16.86
67599;BMP280;62026;39.230;9.122;2023-04-01T19:03:25;100803.44;;;16.84
67599;BMP280;62026;39.230;9.122;2023-04-01T19:06:13;100810.63;;;16.84
67599;BMP280;62026;39.230;9.122;2023-04-01T19:08:41;100814.84;;;16.80
67599;BMP280;62026;39.230;9.122;2023-04-01T19:11:39;100812.66;;;16.77
67599;BMP280;62026;39.230;9.122;2023-04-01T19:20:14;100816.59;;;16.69
67599;BMP280;62026;39.230;9.122;2023-04-01T19:25:59;100842.66;;;16.67
67599;BMP280;62026;39.230;9.122;2023-04-01T19:37:40;100835.84;;;16.55
67599;BMP280;62026;39.230;9.122;2023-04-01T19:46:19;100812.50;;;16.45
67599;BMP280;62026;39.230;9.122;2023-04-01T19:49:26;100805.34;;;16.45
67599;BMP280;62026;39.230;9.122;2023-04-01T20:02:56;100830.13;;;16.46
67599;BMP280;62026;39.230;9.122;2023-04-01T20:08:45;100827.38;;;16.41
67599;BMP280;62026;39.230;9.122;2023-04-01T20:11:41;100821.97;;;16.36
67599;BMP280;62026;39.230;9.122;2023-04-01T20:35:36;100819.84;;;16.16
67599;BMP280;62026;39.230;9.122;2023-04-01T20:38:30;100811.34;;;16.19
67599;BMP280;62026;39.230;9.122;2023-04-01T20:44:09;100825.19;;;16.16
67599;BMP280;62026;39.230;9.122;2023-04-01T20:46:52;100817.72;;;16.18
67599;BMP280;62026;39.230;9.122;2023-04-01T20:49:37;100825.19;;;16.16
67599;BMP280;62026;39.230;9.122;2023-04-01T20:57:17;100836.28;;;16.13
67599;BMP280;62026;39.230;9.122;2023-04-01T21:03:12;100822.91;;;16.08
67599;BMP280;62026;39.230;9.122;2023-04-01T21:18:31;100816.47;;;16.04
67599;BMP280;62026;39.230;9.122;2023-04-01T21:26:51;100815.72;;;15.92
67599;BMP280;62026;39.230;9.122;2023-04-01T21:45:46;100818.06;;;15.71
67599;BMP280;62026;39.230;9.122;2023-04-01T21:51:42;100815.97;;;15.57
67599;BMP280;62026;39.230;9.122;2023-04-01T22:08:41;100802.25;;;15.48
67599;BMP280;62026;39.230;9.122;2023-04-01T22:17:35;100791.06;;;15.46
67599;BMP280;62026;39.230;9.122;2023-04-01T22:28:45;100792.25;;;15.38
67599;BMP280;62026;39.230;9.122;2023-04-01T22:31:28;100784.31;;;15.27
67599;BMP280;62026;39.230;9.122;2023-04-01T22:34:16;100790.84;;;15.07
67599;BMP280;62026;39.230;9.122;2023-04-01T22:36:56;100775.22;;;14.94
67599;BMP280;62026;39.230;9.122;2023-04-01T22:40:08;100772.06;;;14.97
67599;BMP280;62026;39.230;9.122;2023-04-01T22:42:47;100767.59;;;14.86
67599;BMP280;62026;39.230;9.122;2023-04-01T22:48:49;100770.31;;;15.03
67599;BMP280;62026;39.230;9.122;2023-04-01T22:51:39;100766.03;;;15.02
67599;BMP280;62026;39.230;9.122;2023-04-01T22:54:35;100766.84;;;15.02
67599;BMP280;62026;39.230;9.122;2023-04-01T22:57:13;100765.44;;;15.00
67599;BMP280;62026;39.230;9.122;2023-04-01T23:02:23;100762.97;;;14.93
67599;BMP280;62026;39.230;9.122;2023-04-01T23:05:00;100763.41;;;14.90
67599;BMP280;62026;39.230;9.122;2023-04-01T23:07:56;100753.56;;;14.91
67599;BMP280;62026;39.230;9.122;2023-04-01T23:13:10;100746.09;;;14.88
67599;BMP280;62026;39.230;9.122;2023-04-01T23:15:39;100750.91;;;14.91
67599;BMP280;62026;39.230;9.122;2023-04-01T23:21:23;100747.00;;;14.93
67599;BMP280;62026;39.230;9.122;2023-04-01T23:24:25;100742.72;;;14.92
67599;BMP280;62026;39.230;9.122;2023-04-01T23:27:10;100733.72;;;14.93
67599;BMP280;62026;39.230;9.122;2023-04-01T23:29:39;100721.25;;;14.94
67599;BMP280;62026;39.230;9.122;2023-04-01T23:32:22;100715.56;;;14.90
67599;BMP280;62026;39.230;9.122;2023-04-01T23:34:58;100718.78;;;14.92
67599;BMP280;62026;39.230;9.122;2023-04-01T23:37:26;100706.47;;;14.86
67599;BMP280;62026;39.230;9.122;2023-04-01T23:39:57;100706.00;;;14.89
67599;BMP280;62026;39.230;9.122;2023-04-01T23:42:30;100703.00;;;14.86
67599;BMP280;62026;39.230;9.122;2023-04-01T23:45:16;100694.22;;;14.85
67599;BMP280;62026;39.230;9.122;2023-04-01T23:47:47;100697.34;;;14.82
67599;BMP280;62026;39.230;9.122;2023-04-01T23:50:23;100695.50;;;14.83
67599;BMP280;62026;39.230;9.122;2023-04-01T23:53:12;100697.03;;;14.79
67599;BMP280;62026;39.230;9.122;2023-04-01T23:55:42;100689.28;;;14.77
